aviador You're here:

TNCM Decoded Metar

PHILIPSBURG in ANTILLES
Report Time2018-04-24 14:00:00
UTC Time2018-04-24 14:33:59
Flight Rules vfr VFR
Wind070° at 11 kt
W.Decomp.*RWY 10: 10.6 kt HW 3 kt LCW
W.Rank070° ranks 5
Current wind is above 070° avg. (9.8)
Visibility9999 m
Phenomena:N/A
Clouds:Few 021 Hf
Expected CloudBase > 4,000 ft AGL from Temp-Dew spread
CeilingNone
Temp29°C (ISA +14)
Dew Point19°C (55% RH)
Heat Index30.3°C
AAT28.3°C
QNH1018 hPa
Density Alt1,749 ft
Elevation13 ft
Report Wrong Elevation
Raw Report
TNCM 241400Z 07011KT 040V110 9999 FEW021 29/19 Q1018 A3007
NOSIG=

Extra information for TNCM:More info

Metar Taf Metar & Taf Last 4 Metars F.Rules Stats Wind Profile Meteogram Temp Stats Airport Information Weather charts Add Link Nearby VenuesMetar ALERT Operation Metar Decoded Social comments